Aviation Digital Data Service (ADDS)

Output produced by METARs form (0812 UTC 24 May 2018)
found at http://www.aviationweather.gov/adds/metars/
 
LMML 240745Z 01010KT 9999 FEW016 22/15 Q1018 NOSIG
TAF LMML 240500Z 2406/2506 30010KT 9999 FEW020